sensor_id;sensor_type;location;lat;lon;timestamp;P1;durP1;ratioP1;P2;durP2;ratioP2
4980;SDS011;2507;50.392;7.482;2023-05-10T00:02:06;0.50;;;0.50;;
4980;SDS011;2507;50.392;7.482;2023-05-10T00:04:32;0.50;;;0.50;;
4980;SDS011;2507;50.392;7.482;2023-05-10T00:06:57;0.90;;;0.90;;
4980;SDS011;2507;50.392;7.482;2023-05-10T00:09:22;1.63;;;0.70;;
4980;SDS011;2507;50.392;7.482;2023-05-10T00:11:48;0.80;;;0.80;;
4980;SDS011;2507;50.392;7.482;2023-05-10T00:14:13;1.00;;;0.60;;
4980;SDS011;2507;50.392;7.482;2023-05-10T00:16:38;0.50;;;0.50;;
4980;SDS011;2507;50.392;7.482;2023-05-10T00:19:04;0.50;;;0.50;;
4980;SDS011;2507;50.392;7.482;2023-05-10T00:21:29;1.00;;;0.67;;
4980;SDS011;2507;50.392;7.482;2023-05-10T00:23:54;0.43;;;0.43;;
4980;SDS011;2507;50.392;7.482;2023-05-10T00:26:20;0.63;;;0.57;;
4980;SDS011;2507;50.392;7.482;2023-05-10T00:28:45;0.90;;;0.40;;
4980;SDS011;2507;50.392;7.482;2023-05-10T00:31:10;0.73;;;0.40;;
4980;SDS011;2507;50.392;7.482;2023-05-10T00:33:36;1.20;;;0.70;;
4980;SDS011;2507;50.392;7.482;2023-05-10T00:36:01;0.97;;;0.73;;
4980;SDS011;2507;50.392;7.482;2023-05-10T00:38:26;0.83;;;0.50;;
4980;SDS011;2507;50.392;7.482;2023-05-10T00:40:51;0.60;;;0.60;;
4980;SDS011;2507;50.392;7.482;2023-05-10T00:43:17;0.70;;;0.40;;
4980;SDS011;2507;50.392;7.482;2023-05-10T00:45:42;0.50;;;0.50;;
4980;SDS011;2507;50.392;7.482;2023-05-10T00:48:08;0.60;;;0.60;;
4980;SDS011;2507;50.392;7.482;2023-05-10T00:50:33;1.00;;;0.90;;
4980;SDS011;2507;50.392;7.482;2023-05-10T00:52:59;0.90;;;0.63;;
4980;SDS011;2507;50.392;7.482;2023-05-10T00:55:25;0.87;;;0.80;;
4980;SDS011;2507;50.392;7.482;2023-05-10T00:57:50;0.50;;;0.50;;
4980;SDS011;2507;50.392;7.482;2023-05-10T01:00:17;0.60;;;0.60;;
4980;SDS011;2507;50.392;7.482;2023-05-10T01:02:46;1.23;;;0.80;;
4980;SDS011;2507;50.392;7.482;2023-05-10T01:05:12;0.63;;;0.63;;
4980;SDS011;2507;50.392;7.482;2023-05-10T01:07:38;0.87;;;0.87;;
4980;SDS011;2507;50.392;7.482;2023-05-10T01:10:04;3.80;;;1.13;;
4980;SDS011;2507;50.392;7.482;2023-05-10T01:12:30;0.60;;;0.60;;
4980;SDS011;2507;50.392;7.482;2023-05-10T01:14:56;0.67;;;0.67;;
4980;SDS011;2507;50.392;7.482;2023-05-10T01:17:23;3.17;;;0.70;;
4980;SDS011;2507;50.392;7.482;2023-05-10T01:19:49;0.50;;;0.50;;
4980;SDS011;2507;50.392;7.482;2023-05-10T01:27:45;0.60;;;0.57;;
4980;SDS011;2507;50.392;7.482;2023-05-10T01:33:18;0.60;;;0.60;;
4980;SDS011;2507;50.392;7.482;2023-05-10T01:36:05;0.63;;;0.63;;
4980;SDS011;2507;50.392;7.482;2023-05-10T01:38:54;0.60;;;0.60;;
4980;SDS011;2507;50.392;7.482;2023-05-10T01:41:28;0.63;;;0.63;;
4980;SDS011;2507;50.392;7.482;2023-05-10T01:44:03;1.17;;;0.57;;
4980;SDS011;2507;50.392;7.482;2023-05-10T01:46:38;0.53;;;0.53;;
4980;SDS011;2507;50.392;7.482;2023-05-10T01:49:07;0.93;;;0.60;;
4980;SDS011;2507;50.392;7.482;2023-05-10T01:51:36;1.77;;;0.50;;
4980;SDS011;2507;50.392;7.482;2023-05-10T01:54:06;1.37;;;0.60;;
4980;SDS011;2507;50.392;7.482;2023-05-10T01:56:35;0.50;;;0.50;;
4980;SDS011;2507;50.392;7.482;2023-05-10T01:59:05;0.50;;;0.50;;
4980;SDS011;2507;50.392;7.482;2023-05-10T02:01:36;0.60;;;0.47;;
4980;SDS011;2507;50.392;7.482;2023-05-10T02:04:02;1.17;;;0.80;;
4980;SDS011;2507;50.392;7.482;2023-05-10T02:06:29;1.60;;;0.90;;
4980;SDS011;2507;50.392;7.482;2023-05-10T02:08:56;3.23;;;0.60;;
4980;SDS011;2507;50.392;7.482;2023-05-10T02:11:22;0.60;;;0.60;;
4980;SDS011;2507;50.392;7.482;2023-05-10T02:13:49;0.70;;;0.70;;
4980;SDS011;2507;50.392;7.482;2023-05-10T02:16:16;0.80;;;0.80;;
4980;SDS011;2507;50.392;7.482;2023-05-10T02:18:44;0.80;;;0.80;;
4980;SDS011;2507;50.392;7.482;2023-05-10T02:21:10;0.90;;;0.60;;
4980;SDS011;2507;50.392;7.482;2023-05-10T02:23:37;0.70;;;0.70;;
4980;SDS011;2507;50.392;7.482;2023-05-10T02:26:03;2.30;;;0.90;;
4980;SDS011;2507;50.392;7.482;2023-05-10T02:28:30;1.50;;;0.80;;
4980;SDS011;2507;50.392;7.482;2023-05-10T02:30:57;0.70;;;0.70;;
4980;SDS011;2507;50.392;7.482;2023-05-10T02:33:23;0.70;;;0.70;;
4980;SDS011;2507;50.392;7.482;2023-05-10T02:35:50;0.60;;;0.60;;
4980;SDS011;2507;50.392;7.482;2023-05-10T02:38:15;1.27;;;0.90;;
4980;SDS011;2507;50.392;7.482;2023-05-10T02:40:43;0.70;;;0.60;;
4980;SDS011;2507;50.392;7.482;2023-05-10T02:43:12;1.27;;;0.70;;
4980;SDS011;2507;50.392;7.482;2023-05-10T02:45:39;0.53;;;0.50;;
4980;SDS011;2507;50.392;7.482;2023-05-10T02:48:06;1.03;;;0.47;;
4980;SDS011;2507;50.392;7.482;2023-05-10T02:50:32;1.00;;;1.00;;
4980;SDS011;2507;50.392;7.482;2023-05-10T02:53:02;0.80;;;0.80;;
4980;SDS011;2507;50.392;7.482;2023-05-10T02:55:35;1.83;;;0.80;;
4980;SDS011;2507;50.392;7.482;2023-05-10T02:58:02;1.57;;;0.70;;
4980;SDS011;2507;50.392;7.482;2023-05-10T03:00:28;0.87;;;0.87;;
4980;SDS011;2507;50.392;7.482;2023-05-10T03:02:54;1.00;;;1.00;;
4980;SDS011;2507;50.392;7.482;2023-05-10T03:05:20;0.97;;;0.97;;
4980;SDS011;2507;50.392;7.482;2023-05-10T03:07:45;0.70;;;0.70;;
4980;SDS011;2507;50.392;7.482;2023-05-10T03:10:11;0.80;;;0.80;;
4980;SDS011;2507;50.392;7.482;2023-05-10T03:18:23;1.77;;;1.03;;
4980;SDS011;2507;50.392;7.482;2023-05-10T03:20:59;1.63;;;1.10;;
4980;SDS011;2507;50.392;7.482;2023-05-10T03:23:34;2.33;;;1.17;;
4980;SDS011;2507;50.392;7.482;2023-05-10T03:26:04;1.37;;;1.10;;
4980;SDS011;2507;50.392;7.482;2023-05-10T03:28:30;1.27;;;1.27;;
4980;SDS011;2507;50.392;7.482;2023-05-10T03:30:58;1.30;;;1.30;;
4980;SDS011;2507;50.392;7.482;2023-05-10T03:33:24;1.57;;;1.50;;
4980;SDS011;2507;50.392;7.482;2023-05-10T03:35:50;1.77;;;1.67;;
4980;SDS011;2507;50.392;7.482;2023-05-10T03:38:15;1.67;;;1.57;;
4980;SDS011;2507;50.392;7.482;2023-05-10T03:40:40;2.00;;;1.90;;
4980;SDS011;2507;50.392;7.482;2023-05-10T03:43:06;1.60;;;1.60;;
4980;SDS011;2507;50.392;7.482;2023-05-10T03:45:31;1.67;;;1.67;;
4980;SDS011;2507;50.392;7.482;2023-05-10T03:47:57;4.40;;;1.70;;
4980;SDS011;2507;50.392;7.482;2023-05-10T03:50:23;2.30;;;2.10;;
4980;SDS011;2507;50.392;7.482;2023-05-10T03:52:48;1.50;;;1.40;;
4980;SDS011;2507;50.392;7.482;2023-05-10T03:55:14;1.70;;;1.60;;
4980;SDS011;2507;50.392;7.482;2023-05-10T03:57:39;1.50;;;1.40;;
4980;SDS011;2507;50.392;7.482;2023-05-10T04:00:04;1.77;;;1.67;;
4980;SDS011;2507;50.392;7.482;2023-05-10T04:02:30;1.33;;;1.33;;
4980;SDS011;2507;50.392;7.482;2023-05-10T04:04:56;2.00;;;1.80;;
4980;SDS011;2507;50.392;7.482;2023-05-10T04:07:21;1.83;;;1.73;;
4980;SDS011;2507;50.392;7.482;2023-05-10T04:09:46;1.40;;;1.40;;
4980;SDS011;2507;50.392;7.482;2023-05-10T04:12:12;2.30;;;1.73;;
4980;SDS011;2507;50.392;7.482;2023-05-10T04:14:37;2.10;;;2.00;;
4980;SDS011;2507;50.392;7.482;2023-05-10T04:17:03;2.30;;;1.97;;
4980;SDS011;2507;50.392;7.482;2023-05-10T04:19:29;1.80;;;1.70;;
4980;SDS011;2507;50.392;7.482;2023-05-10T04:21:55;2.30;;;2.23;;
4980;SDS011;2507;50.392;7.482;2023-05-10T04:24:20;1.80;;;1.80;;
4980;SDS011;2507;50.392;7.482;2023-05-10T04:26:45;2.43;;;2.23;;
4980;SDS011;2507;50.392;7.482;2023-05-10T04:29:10;3.73;;;2.03;;
4980;SDS011;2507;50.392;7.482;2023-05-10T04:31:36;2.17;;;2.07;;
4980;SDS011;2507;50.392;7.482;2023-05-10T04:34:01;6.20;;;2.63;;
4980;SDS011;2507;50.392;7.482;2023-05-10T04:36:26;3.23;;;2.77;;
4980;SDS011;2507;50.392;7.482;2023-05-10T04:38:52;2.20;;;2.00;;
4980;SDS011;2507;50.392;7.482;2023-05-10T04:41:17;3.10;;;2.80;;
4980;SDS011;2507;50.392;7.482;2023-05-10T04:43:43;2.37;;;2.37;;
4980;SDS011;2507;50.392;7.482;2023-05-10T04:46:08;2.83;;;2.73;;
4980;SDS011;2507;50.392;7.482;2023-05-10T04:48:33;2.80;;;2.63;;
4980;SDS011;2507;50.392;7.482;2023-05-10T04:50:59;2.87;;;2.67;;
4980;SDS011;2507;50.392;7.482;2023-05-10T04:53:24;3.00;;;2.80;;
4980;SDS011;2507;50.392;7.482;2023-05-10T04:55:49;2.63;;;2.53;;
4980;SDS011;2507;50.392;7.482;2023-05-10T04:58:15;2.87;;;2.77;;
4980;SDS011;2507;50.392;7.482;2023-05-10T05:00:40;3.20;;;3.10;;
4980;SDS011;2507;50.392;7.482;2023-05-10T05:03:06;2.30;;;2.10;;
4980;SDS011;2507;50.392;7.482;2023-05-10T05:05:31;2.57;;;2.47;;
4980;SDS011;2507;50.392;7.482;2023-05-10T05:07:57;3.17;;;2.77;;
4980;SDS011;2507;50.392;7.482;2023-05-10T05:10:22;3.10;;;2.90;;
4980;SDS011;2507;50.392;7.482;2023-05-10T05:12:47;3.10;;;2.80;;
4980;SDS011;2507;50.392;7.482;2023-05-10T05:15:13;3.00;;;2.80;;
4980;SDS011;2507;50.392;7.482;2023-05-10T05:17:38;2.80;;;2.70;;
4980;SDS011;2507;50.392;7.482;2023-05-10T05:20:03;2.70;;;2.50;;
4980;SDS011;2507;50.392;7.482;2023-05-10T05:22:29;3.10;;;2.73;;
4980;SDS011;2507;50.392;7.482;2023-05-10T05:24:55;4.23;;;2.70;;
4980;SDS011;2507;50.392;7.482;2023-05-10T05:27:21;2.97;;;2.77;;
4980;SDS011;2507;50.392;7.482;2023-05-10T05:29:49;2.90;;;2.10;;
4980;SDS011;2507;50.392;7.482;2023-05-10T05:32:17;3.73;;;2.40;;
4980;SDS011;2507;50.392;7.482;2023-05-10T05:34:46;2.03;;;1.93;;
4980;SDS011;2507;50.392;7.482;2023-05-10T05:37:15;2.27;;;2.17;;
4980;SDS011;2507;50.392;7.482;2023-05-10T05:39:41;2.00;;;2.00;;
4980;SDS011;2507;50.392;7.482;2023-05-10T05:42:07;2.87;;;1.70;;
4980;SDS011;2507;50.392;7.482;2023-05-10T05:44:33;2.10;;;1.90;;
4980;SDS011;2507;50.392;7.482;2023-05-10T05:46:58;2.03;;;1.90;;
4980;SDS011;2507;50.392;7.482;2023-05-10T05:49:23;2.30;;;1.80;;
4980;SDS011;2507;50.392;7.482;2023-05-10T05:51:48;1.77;;;1.67;;
4980;SDS011;2507;50.392;7.482;2023-05-10T05:54:15;1.60;;;1.50;;
4980;SDS011;2507;50.392;7.482;2023-05-10T05:56:40;1.93;;;1.70;;
4980;SDS011;2507;50.392;7.482;2023-05-10T05:59:05;2.00;;;1.77;;
4980;SDS011;2507;50.392;7.482;2023-05-10T06:01:31;2.20;;;1.70;;
4980;SDS011;2507;50.392;7.482;2023-05-10T06:03:56;1.60;;;1.50;;
4980;SDS011;2507;50.392;7.482;2023-05-10T06:06:21;1.33;;;1.30;;
4980;SDS011;2507;50.392;7.482;2023-05-10T06:08:47;1.10;;;1.10;;
4980;SDS011;2507;50.392;7.482;2023-05-10T06:11:12;1.10;;;1.10;;
4980;SDS011;2507;50.392;7.482;2023-05-10T06:13:37;1.37;;;1.33;;
4980;SDS011;2507;50.392;7.482;2023-05-10T06:16:02;1.53;;;1.30;;
4980;SDS011;2507;50.392;7.482;2023-05-10T06:18:28;1.53;;;1.43;;
4980;SDS011;2507;50.392;7.482;2023-05-10T06:20:53;1.47;;;1.37;;
4980;SDS011;2507;50.392;7.482;2023-05-10T06:23:18;2.40;;;1.67;;
4980;SDS011;2507;50.392;7.482;2023-05-10T06:25:44;1.63;;;1.40;;
4980;SDS011;2507;50.392;7.482;2023-05-10T06:28:09;1.37;;;1.20;;
4980;SDS011;2507;50.392;7.482;2023-05-10T06:30:35;1.73;;;1.53;;
4980;SDS011;2507;50.392;7.482;2023-05-10T06:33:01;1.50;;;1.40;;
4980;SDS011;2507;50.392;7.482;2023-05-10T06:35:26;2.40;;;1.77;;
4980;SDS011;2507;50.392;7.482;2023-05-10T06:37:51;1.33;;;1.23;;
4980;SDS011;2507;50.392;7.482;2023-05-10T06:40:17;2.30;;;2.10;;
4980;SDS011;2507;50.392;7.482;2023-05-10T06:42:42;2.10;;;1.63;;
4980;SDS011;2507;50.392;7.482;2023-05-10T06:45:09;3.60;;;1.83;;
4980;SDS011;2507;50.392;7.482;2023-05-10T06:47:35;1.70;;;1.60;;
4980;SDS011;2507;50.392;7.482;2023-05-10T06:50:00;1.50;;;1.40;;
4980;SDS011;2507;50.392;7.482;2023-05-10T06:52:26;2.17;;;1.97;;
4980;SDS011;2507;50.392;7.482;2023-05-10T06:54:51;3.47;;;1.80;;
4980;SDS011;2507;50.392;7.482;2023-05-10T06:57:17;1.80;;;1.70;;
4980;SDS011;2507;50.392;7.482;2023-05-10T06:59:42;2.17;;;1.90;;
4980;SDS011;2507;50.392;7.482;2023-05-10T07:02:08;3.87;;;1.63;;
4980;SDS011;2507;50.392;7.482;2023-05-10T07:04:33;6.40;;;1.60;;
4980;SDS011;2507;50.392;7.482;2023-05-10T07:06:59;1.77;;;1.60;;
4980;SDS011;2507;50.392;7.482;2023-05-10T07:09:24;6.80;;;2.20;;
4980;SDS011;2507;50.392;7.482;2023-05-10T07:11:49;2.27;;;2.00;;
4980;SDS011;2507;50.392;7.482;2023-05-10T07:14:15;5.67;;;2.63;;
4980;SDS011;2507;50.392;7.482;2023-05-10T07:16:40;4.00;;;1.50;;
4980;SDS011;2507;50.392;7.482;2023-05-10T07:19:05;3.50;;;1.80;;
4980;SDS011;2507;50.392;7.482;2023-05-10T07:21:31;1.53;;;1.43;;
4980;SDS011;2507;50.392;7.482;2023-05-10T07:23:57;2.00;;;1.80;;
4980;SDS011;2507;50.392;7.482;2023-05-10T07:26:22;3.43;;;2.07;;
4980;SDS011;2507;50.392;7.482;2023-05-10T07:28:47;1.90;;;1.70;;
4980;SDS011;2507;50.392;7.482;2023-05-10T07:31:13;1.97;;;1.60;;
4980;SDS011;2507;50.392;7.482;2023-05-10T07:33:38;1.43;;;1.37;;
4980;SDS011;2507;50.392;7.482;2023-05-10T07:36:03;3.03;;;2.23;;
4980;SDS011;2507;50.392;7.482;2023-05-10T07:38:29;3.50;;;2.37;;
4980;SDS011;2507;50.392;7.482;2023-05-10T07:40:54;3.37;;;1.60;;
4980;SDS011;2507;50.392;7.482;2023-05-10T07:43:19;2.20;;;1.97;;
4980;SDS011;2507;50.392;7.482;2023-05-10T07:45:45;2.73;;;1.80;;
4980;SDS011;2507;50.392;7.482;2023-05-10T07:48:10;5.83;;;1.73;;
4980;SDS011;2507;50.392;7.482;2023-05-10T07:50:35;5.57;;;1.90;;
4980;SDS011;2507;50.392;7.482;2023-05-10T07:53:00;1.97;;;1.60;;
4980;SDS011;2507;50.392;7.482;2023-05-10T07:55:26;1.90;;;1.80;;
4980;SDS011;2507;50.392;7.482;2023-05-10T07:57:51;3.37;;;1.97;;
4980;SDS011;2507;50.392;7.482;2023-05-10T08:00:17;4.70;;;1.97;;
4980;SDS011;2507;50.392;7.482;2023-05-10T08:02:43;3.17;;;1.90;;
4980;SDS011;2507;50.392;7.482;2023-05-10T08:05:08;1.63;;;1.53;;
4980;SDS011;2507;50.392;7.482;2023-05-10T08:07:34;1.60;;;1.47;;
4980;SDS011;2507;50.392;7.482;2023-05-10T08:10:00;6.17;;;2.13;;
4980;SDS011;2507;50.392;7.482;2023-05-10T08:12:25;3.03;;;1.90;;
4980;SDS011;2507;50.392;7.482;2023-05-10T08:14:50;10.23;;;2.10;;
4980;SDS011;2507;50.392;7.482;2023-05-10T08:17:15;2.17;;;1.50;;
4980;SDS011;2507;50.392;7.482;2023-05-10T08:19:41;3.50;;;2.20;;
4980;SDS011;2507;50.392;7.482;2023-05-10T08:22:06;3.00;;;2.40;;
4980;SDS011;2507;50.392;7.482;2023-05-10T08:24:31;8.10;;;3.27;;
4980;SDS011;2507;50.392;7.482;2023-05-10T08:26:57;4.07;;;2.33;;
4980;SDS011;2507;50.392;7.482;2023-05-10T08:29:22;4.40;;;3.07;;
4980;SDS011;2507;50.392;7.482;2023-05-10T08:31:48;6.93;;;2.10;;
4980;SDS011;2507;50.392;7.482;2023-05-10T08:34:13;2.90;;;2.70;;
4980;SDS011;2507;50.392;7.482;2023-05-10T08:36:38;2.40;;;2.10;;
4980;SDS011;2507;50.392;7.482;2023-05-10T08:39:03;2.50;;;2.30;;
4980;SDS011;2507;50.392;7.482;2023-05-10T08:41:29;7.17;;;1.87;;
4980;SDS011;2507;50.392;7.482;2023-05-10T08:43:55;3.30;;;2.20;;
4980;SDS011;2507;50.392;7.482;2023-05-10T08:46:21;2.80;;;1.57;;
4980;SDS011;2507;50.392;7.482;2023-05-10T08:48:47;1.93;;;1.83;;
4980;SDS011;2507;50.392;7.482;2023-05-10T08:51:19;4.00;;;2.10;;
4980;SDS011;2507;50.392;7.482;2023-05-10T08:53:46;2.50;;;1.60;;
4980;SDS011;2507;50.392;7.482;2023-05-10T08:56:12;1.60;;;1.50;;
4980;SDS011;2507;50.392;7.482;2023-05-10T08:58:38;3.07;;;1.43;;
4980;SDS011;2507;50.392;7.482;2023-05-10T09:01:03;1.53;;;1.13;;
4980;SDS011;2507;50.392;7.482;2023-05-10T09:03:30;1.97;;;1.77;;
4980;SDS011;2507;50.392;7.482;2023-05-10T09:05:55;1.80;;;1.70;;
4980;SDS011;2507;50.392;7.482;2023-05-10T09:08:22;1.10;;;0.83;;
4980;SDS011;2507;50.392;7.482;2023-05-10T09:10:50;1.03;;;0.90;;
4980;SDS011;2507;50.392;7.482;2023-05-10T09:13:15;1.00;;;0.90;;
4980;SDS011;2507;50.392;7.482;2023-05-10T09:15:43;3.47;;;1.53;;
4980;SDS011;2507;50.392;7.482;2023-05-10T09:18:08;3.80;;;1.57;;
4980;SDS011;2507;50.392;7.482;2023-05-10T09:20:34;0.83;;;0.80;;
4980;SDS011;2507;50.392;7.482;2023-05-10T09:22:59;0.70;;;0.70;;
4980;SDS011;2507;50.392;7.482;2023-05-10T09:25:24;3.70;;;1.90;;
4980;SDS011;2507;50.392;7.482;2023-05-10T09:27:50;0.50;;;0.40;;
4980;SDS011;2507;50.392;7.482;2023-05-10T09:30:25;0.80;;;0.80;;
4980;SDS011;2507;50.392;7.482;2023-05-10T09:32:52;1.30;;;0.60;;
4980;SDS011;2507;50.392;7.482;2023-05-10T09:35:19;2.53;;;1.03;;
4980;SDS011;2507;50.392;7.482;2023-05-10T09:37:46;0.83;;;0.80;;
4980;SDS011;2507;50.392;7.482;2023-05-10T09:42:41;0.93;;;0.83;;
4980;SDS011;2507;50.392;7.482;2023-05-10T09:45:15;1.83;;;0.50;;
4980;SDS011;2507;50.392;7.482;2023-05-10T09:47:40;1.03;;;0.70;;
4980;SDS011;2507;50.392;7.482;2023-05-10T09:50:05;0.60;;;0.60;;
4980;SDS011;2507;50.392;7.482;2023-05-10T09:52:39;0.60;;;0.60;;
4980;SDS011;2507;50.392;7.482;2023-05-10T09:55:13;0.63;;;0.50;;
4980;SDS011;2507;50.392;7.482;2023-05-10T09:57:39;1.23;;;0.50;;
4980;SDS011;2507;50.392;7.482;2023-05-10T10:00:04;0.60;;;0.60;;
4980;SDS011;2507;50.392;7.482;2023-05-10T10:02:31;1.00;;;0.40;;
4980;SDS011;2507;50.392;7.482;2023-05-10T10:04:56;2.50;;;2.30;;
4980;SDS011;2507;50.392;7.482;2023-05-10T10:07:22;1.20;;;0.70;;
4980;SDS011;2507;50.392;7.482;2023-05-10T10:09:50;2.80;;;2.40;;
4980;SDS011;2507;50.392;7.482;2023-05-10T10:12:16;0.70;;;0.57;;
4980;SDS011;2507;50.392;7.482;2023-05-10T10:14:42;1.20;;;1.10;;
4980;SDS011;2507;50.392;7.482;2023-05-10T10:17:08;0.50;;;0.37;;
4980;SDS011;2507;50.392;7.482;2023-05-10T10:19:34;1.10;;;0.53;;
4980;SDS011;2507;50.392;7.482;2023-05-10T10:22:00;2.87;;;0.43;;
4980;SDS011;2507;50.392;7.482;2023-05-10T10:24:25;1.00;;;0.70;;
4980;SDS011;2507;50.392;7.482;2023-05-10T10:26:51;0.60;;;0.40;;
4980;SDS011;2507;50.392;7.482;2023-05-10T10:29:31;0.60;;;0.30;;
4980;SDS011;2507;50.392;7.482;2023-05-10T10:35:07;1.10;;;0.83;;
4980;SDS011;2507;50.392;7.482;2023-05-10T10:37:44;1.93;;;1.83;;
4980;SDS011;2507;50.392;7.482;2023-05-10T10:40:23;2.70;;;0.57;;
4980;SDS011;2507;50.392;7.482;2023-05-10T10:42:52;0.70;;;0.70;;
4980;SDS011;2507;50.392;7.482;2023-05-10T10:45:19;0.60;;;0.60;;
4980;SDS011;2507;50.392;7.482;2023-05-10T10:47:44;1.60;;;0.60;;
4980;SDS011;2507;50.392;7.482;2023-05-10T10:50:10;3.20;;;0.50;;
4980;SDS011;2507;50.392;7.482;2023-05-10T10:52:40;0.60;;;0.50;;
4980;SDS011;2507;50.392;7.482;2023-05-10T10:55:13;0.63;;;0.63;;
4980;SDS011;2507;50.392;7.482;2023-05-10T10:57:42;0.63;;;0.63;;
4980;SDS011;2507;50.392;7.482;2023-05-10T11:07:51;2.00;;;0.90;;
4980;SDS011;2507;50.392;7.482;2023-05-10T11:10:20;1.80;;;0.57;;
4980;SDS011;2507;50.392;7.482;2023-05-10T11:12:53;0.50;;;0.50;;
4980;SDS011;2507;50.392;7.482;2023-05-10T11:15:32;2.40;;;2.20;;
4980;SDS011;2507;50.392;7.482;2023-05-10T11:18:15;0.73;;;0.50;;
4980;SDS011;2507;50.392;7.482;2023-05-10T11:20:49;1.00;;;0.80;;
4980;SDS011;2507;50.392;7.482;2023-05-10T11:23:16;1.10;;;0.93;;
4980;SDS011;2507;50.392;7.482;2023-05-10T11:25:43;1.17;;;0.40;;
4980;SDS011;2507;50.392;7.482;2023-05-10T11:28:09;0.70;;;0.70;;
4980;SDS011;2507;50.392;7.482;2023-05-10T11:30:35;0.73;;;0.73;;
4980;SDS011;2507;50.392;7.482;2023-05-10T11:33:01;2.43;;;0.53;;
4980;SDS011;2507;50.392;7.482;2023-05-10T11:35:27;1.80;;;0.60;;
4980;SDS011;2507;50.392;7.482;2023-05-10T11:37:52;1.23;;;0.40;;
4980;SDS011;2507;50.392;7.482;2023-05-10T11:40:18;0.97;;;0.47;;
4980;SDS011;2507;50.392;7.482;2023-05-10T11:42:43;0.40;;;0.30;;
4980;SDS011;2507;50.392;7.482;2023-05-10T11:45:10;0.50;;;0.50;;
4980;SDS011;2507;50.392;7.482;2023-05-10T11:47:35;4.40;;;0.50;;
4980;SDS011;2507;50.392;7.482;2023-05-10T11:50:01;0.60;;;0.60;;
4980;SDS011;2507;50.392;7.482;2023-05-10T11:52:27;2.50;;;0.60;;
4980;SDS011;2507;50.392;7.482;2023-05-10T11:54:54;0.80;;;0.43;;
4980;SDS011;2507;50.392;7.482;2023-05-10T11:57:20;0.50;;;0.50;;
4980;SDS011;2507;50.392;7.482;2023-05-10T11:59:53;3.03;;;0.50;;
4980;SDS011;2507;50.392;7.482;2023-05-10T12:02:20;0.90;;;0.80;;
4980;SDS011;2507;50.392;7.482;2023-05-10T12:04:45;0.50;;;0.40;;
4980;SDS011;2507;50.392;7.482;2023-05-10T12:07:11;2.17;;;2.00;;
4980;SDS011;2507;50.392;7.482;2023-05-10T12:09:36;1.90;;;0.40;;
4980;SDS011;2507;50.392;7.482;2023-05-10T12:12:02;1.13;;;0.40;;
4980;SDS011;2507;50.392;7.482;2023-05-10T12:14:27;5.80;;;0.50;;
4980;SDS011;2507;50.392;7.482;2023-05-10T12:16:53;1.90;;;0.50;;
4980;SDS011;2507;50.392;7.482;2023-05-10T12:19:21;1.80;;;0.97;;
4980;SDS011;2507;50.392;7.482;2023-05-10T12:21:47;1.33;;;0.70;;
4980;SDS011;2507;50.392;7.482;2023-05-10T12:24:13;6.73;;;1.37;;
4980;SDS011;2507;50.392;7.482;2023-05-10T12:26:39;1.93;;;1.07;;
4980;SDS011;2507;50.392;7.482;2023-05-10T12:29:11;5.33;;;1.47;;
4980;SDS011;2507;50.392;7.482;2023-05-10T12:34:25;3.97;;;1.03;;
4980;SDS011;2507;50.392;7.482;2023-05-10T12:37:01;4.30;;;1.17;;
4980;SDS011;2507;50.392;7.482;2023-05-10T12:39:37;0.80;;;0.60;;
4980;SDS011;2507;50.392;7.482;2023-05-10T12:42:07;0.93;;;0.70;;
4980;SDS011;2507;50.392;7.482;2023-05-10T12:44:33;0.57;;;0.40;;
4980;SDS011;2507;50.392;7.482;2023-05-10T12:46:59;0.50;;;0.50;;
4980;SDS011;2507;50.392;7.482;2023-05-10T12:49:24;1.47;;;0.37;;
4980;SDS011;2507;50.392;7.482;2023-05-10T12:51:49;1.83;;;1.43;;
4980;SDS011;2507;50.392;7.482;2023-05-10T12:54:15;0.60;;;0.40;;
4980;SDS011;2507;50.392;7.482;2023-05-10T12:56:40;1.30;;;0.50;;
4980;SDS011;2507;50.392;7.482;2023-05-10T12:59:07;1.10;;;0.87;;
4980;SDS011;2507;50.392;7.482;2023-05-10T13:01:32;0.60;;;0.50;;
4980;SDS011;2507;50.392;7.482;2023-05-10T13:03:58;3.27;;;0.83;;
4980;SDS011;2507;50.392;7.482;2023-05-10T13:06:24;0.70;;;0.60;;
4980;SDS011;2507;50.392;7.482;2023-05-10T13:08:50;0.70;;;0.40;;
4980;SDS011;2507;50.392;7.482;2023-05-10T13:11:16;1.53;;;0.33;;
4980;SDS011;2507;50.392;7.482;2023-05-10T13:13:42;0.50;;;0.30;;
4980;SDS011;2507;50.392;7.482;2023-05-10T13:16:07;0.50;;;0.30;;
4980;SDS011;2507;50.392;7.482;2023-05-10T13:18:32;0.90;;;0.30;;
4980;SDS011;2507;50.392;7.482;2023-05-10T13:20:58;0.40;;;0.30;;
4980;SDS011;2507;50.392;7.482;2023-05-10T13:23:23;2.53;;;0.30;;
4980;SDS011;2507;50.392;7.482;2023-05-10T13:25:48;0.50;;;0.30;;
4980;SDS011;2507;50.392;7.482;2023-05-10T13:28:14;0.50;;;0.40;;
4980;SDS011;2507;50.392;7.482;2023-05-10T13:30:40;0.60;;;0.40;;
4980;SDS011;2507;50.392;7.482;2023-05-10T13:33:05;0.50;;;0.30;;
4980;SDS011;2507;50.392;7.482;2023-05-10T13:35:31;0.60;;;0.40;;
4980;SDS011;2507;50.392;7.482;2023-05-10T13:37:56;0.50;;;0.47;;
4980;SDS011;2507;50.392;7.482;2023-05-10T13:40:22;0.70;;;0.70;;
4980;SDS011;2507;50.392;7.482;2023-05-10T13:42:47;1.23;;;0.40;;
4980;SDS011;2507;50.392;7.482;2023-05-10T13:45:13;0.57;;;0.50;;
4980;SDS011;2507;50.392;7.482;2023-05-10T13:47:38;0.47;;;0.30;;
4980;SDS011;2507;50.392;7.482;2023-05-10T13:50:03;0.50;;;0.30;;
4980;SDS011;2507;50.392;7.482;2023-05-10T13:52:29;1.60;;;0.70;;
4980;SDS011;2507;50.392;7.482;2023-05-10T13:54:54;1.73;;;1.63;;
4980;SDS011;2507;50.392;7.482;2023-05-10T13:57:20;2.03;;;1.93;;
4980;SDS011;2507;50.392;7.482;2023-05-10T13:59:46;1.00;;;0.90;;
4980;SDS011;2507;50.392;7.482;2023-05-10T14:02:11;2.60;;;1.77;;
4980;SDS011;2507;50.392;7.482;2023-05-10T14:04:38;1.40;;;0.60;;
4980;SDS011;2507;50.392;7.482;2023-05-10T14:07:03;2.53;;;2.40;;
4980;SDS011;2507;50.392;7.482;2023-05-10T14:09:28;1.13;;;1.13;;
4980;SDS011;2507;50.392;7.482;2023-05-10T14:11:53;0.70;;;0.60;;
4980;SDS011;2507;50.392;7.482;2023-05-10T14:14:19;3.50;;;0.60;;
4980;SDS011;2507;50.392;7.482;2023-05-10T14:16:44;2.40;;;1.43;;
4980;SDS011;2507;50.392;7.482;2023-05-10T14:19:10;1.63;;;1.40;;
4980;SDS011;2507;50.392;7.482;2023-05-10T14:21:36;0.93;;;0.57;;
4980;SDS011;2507;50.392;7.482;2023-05-10T14:24:01;3.80;;;0.70;;
4980;SDS011;2507;50.392;7.482;2023-05-10T14:26:27;1.20;;;1.10;;
4980;SDS011;2507;50.392;7.482;2023-05-10T14:28:52;1.30;;;0.90;;
4980;SDS011;2507;50.392;7.482;2023-05-10T14:31:18;0.70;;;0.70;;
4980;SDS011;2507;50.392;7.482;2023-05-10T14:33:45;0.60;;;0.53;;
4980;SDS011;2507;50.392;7.482;2023-05-10T14:36:11;1.67;;;1.57;;
4980;SDS011;2507;50.392;7.482;2023-05-10T14:38:36;1.70;;;0.70;;
4980;SDS011;2507;50.392;7.482;2023-05-10T14:41:01;1.60;;;0.73;;
4980;SDS011;2507;50.392;7.482;2023-05-10T14:43:27;0.50;;;0.47;;
4980;SDS011;2507;50.392;7.482;2023-05-10T14:45:53;1.17;;;0.50;;
4980;SDS011;2507;50.392;7.482;2023-05-10T14:48:18;1.83;;;0.70;;
4980;SDS011;2507;50.392;7.482;2023-05-10T14:50:44;0.50;;;0.40;;
4980;SDS011;2507;50.392;7.482;2023-05-10T14:53:11;0.93;;;0.93;;
4980;SDS011;2507;50.392;7.482;2023-05-10T14:55:36;4.73;;;0.90;;
4980;SDS011;2507;50.392;7.482;2023-05-10T14:58:02;0.90;;;0.73;;
4980;SDS011;2507;50.392;7.482;2023-05-10T15:00:29;1.20;;;0.73;;
4980;SDS011;2507;50.392;7.482;2023-05-10T15:02:55;0.80;;;0.40;;
4980;SDS011;2507;50.392;7.482;2023-05-10T15:05:20;0.60;;;0.60;;
4980;SDS011;2507;50.392;7.482;2023-05-10T15:07:45;0.63;;;0.63;;
4980;SDS011;2507;50.392;7.482;2023-05-10T15:10:11;0.60;;;0.40;;
4980;SDS011;2507;50.392;7.482;2023-05-10T15:12:36;0.70;;;0.40;;
4980;SDS011;2507;50.392;7.482;2023-05-10T15:15:02;1.00;;;0.90;;
4980;SDS011;2507;50.392;7.482;2023-05-10T15:17:28;0.53;;;0.53;;
4980;SDS011;2507;50.392;7.482;2023-05-10T15:19:53;1.47;;;0.60;;
4980;SDS011;2507;50.392;7.482;2023-05-10T15:22:19;1.00;;;0.70;;
4980;SDS011;2507;50.392;7.482;2023-05-10T15:24:44;0.70;;;0.70;;
4980;SDS011;2507;50.392;7.482;2023-05-10T15:27:09;1.27;;;1.17;;
4980;SDS011;2507;50.392;7.482;2023-05-10T15:29:35;1.03;;;0.60;;
4980;SDS011;2507;50.392;7.482;2023-05-10T15:32:00;0.90;;;0.50;;
4980;SDS011;2507;50.392;7.482;2023-05-10T15:34:26;0.60;;;0.60;;
4980;SDS011;2507;50.392;7.482;2023-05-10T15:36:52;0.80;;;0.50;;
4980;SDS011;2507;50.392;7.482;2023-05-10T15:39:17;0.50;;;0.40;;
4980;SDS011;2507;50.392;7.482;2023-05-10T15:41:42;0.53;;;0.53;;